Time;durP1;ratioP1;P1;durP2;ratioP2;P2;SDS_P1;SDS_P2;PMS_P1;PMS_P2;Temp;Humidity;BMP_temperature;BMP_pressure;BME280_temperature;BME280_humidity;BME280_pressure;Samples;Min_cycle;Max_cycle;Signal;HPM_P1;HPM_P2
2022/08/02 00:04:06;;;;;;;5.85;1.80;;;;;;;;;;10322700;28;20038;-58
2022/08/02 00:09:07;;;;;;;3.88;2.17;;;;;;;;;;10334187;28;20022;-58
2022/08/02 00:14:08;;;;;;;3.85;2.20;;;;;;;;;;10327588;28;20033;-58
2022/08/02 00:19:08;;;;;;;2.75;2.10;;;;;;;;;;10331988;28;20026;-59
2022/08/02 00:24:09;;;;;;;4.80;1.70;;;;;;;;;;10333235;28;20019;-59
2022/08/02 00:29:09;;;;;;;2.95;1.95;;;;;;;;;;10333805;28;21468;-59
2022/08/02 00:34:10;;;;;;;3.42;1.67;;;;;;;;;;10333550;28;20034;-59
2022/08/02 00:39:10;;;;;;;4.30;2.03;;;;;;;;;;10329659;28;20470;-59
2022/08/02 00:44:11;;;;;;;7.22;1.98;;;;;;;;;;10320135;28;20393;-59
2022/08/02 00:49:12;;;;;;;3.17;1.75;;;;;;;;;;10333430;28;20397;-59
2022/08/02 00:54:13;;;;;;;2.67;1.83;;;;;;;;;;10327693;28;20041;-59
2022/08/02 00:59:14;;;;;;;7.88;1.80;;;;;;;;;;10324117;28;20438;-59
2022/08/02 01:04:14;;;;;;;1.88;1.45;;;;;;;;;;10312846;28;20509;-59
2022/08/02 01:09:15;;;;;;;4.30;1.73;;;;;;;;;;10325924;28;20018;-59
2022/08/02 01:14:16;;;;;;;6.85;1.63;;;;;;;;;;10318257;28;20026;-58
2022/08/02 01:19:42;;;;;;;6.65;1.88;;;;;;;;;;10338844;28;20030;-59
2022/08/02 01:25:15;;;;;;;13.55;1.98;;;;;;;;;;10324618;28;20041;-59
2022/08/02 01:30:17;;;;;;;16.00;2.35;;;;;;;;;;10315315;28;20463;-58
2022/08/02 01:35:29;;;;;;;39.13;4.60;;;;;;;;;;10303610;28;20084;-59
2022/08/02 01:40:35;;;;;;;30.45;2.67;;;;;;;;;;10306944;28;20027;-58
2022/08/02 01:45:40;;;;;;;10.90;1.50;;;;;;;;;;10277496;28;20038;-58
2022/08/02 01:50:41;;;;;;;27.58;2.10;;;;;;;;;;10295768;28;20029;-58
2022/08/02 01:55:48;;;;;;;96.45;6.53;;;;;;;;;;10306569;28;20490;-65
2022/08/02 02:00:52;;;;;;;64.03;5.70;;;;;;;;;;10302477;28;20510;-66
2022/08/02 02:05:56;;;;;;;50.10;4.43;;;;;;;;;;10327881;28;20535;-64
2022/08/02 02:10:57;;;;;;;46.45;4.65;;;;;;;;;;10312795;28;20097;-65
2022/08/02 02:16:03;;;;;;;50.28;3.85;;;;;;;;;;10312519;28;20018;-65
2022/08/02 02:21:04;;;;;;;44.95;3.58;;;;;;;;;;10315737;28;20134;-64
2022/08/02 02:26:06;;;;;;;28.83;3.88;;;;;;;;;;10312349;28;20447;-62
2022/08/02 02:31:11;;;;;;;37.05;2.72;;;;;;;;;;10309843;28;20052;-62
2022/08/02 02:36:15;;;;;;;19.50;2.70;;;;;;;;;;10328594;28;20086;-62
2022/08/02 02:41:17;;;;;;;30.02;2.92;;;;;;;;;;10317464;28;20117;-63
2022/08/02 02:46:20;;;;;;;24.10;3.22;;;;;;;;;;10326348;28;20042;-65
2022/08/02 02:51:22;;;;;;;17.58;2.55;;;;;;;;;;10312957;28;20019;-66
2022/08/02 02:56:23;;;;;;;28.58;2.88;;;;;;;;;;10328622;28;20030;-63
2022/08/02 03:01:26;;;;;;;10.60;2.05;;;;;;;;;;10316107;28;20445;-66
2022/08/02 03:06:30;;;;;;;17.50;2.15;;;;;;;;;;10389412;22;20065;-49
2022/08/02 03:11:32;;;;;;;18.10;2.22;;;;;;;;;;10406392;28;20079;-59
2022/08/02 03:16:32;;;;;;;14.93;2.05;;;;;;;;;;10383082;28;20026;-54
2022/08/02 03:21:33;;;;;;;9.38;1.88;;;;;;;;;;10382891;28;20061;-52
2022/08/02 03:26:35;;;;;;;15.23;1.60;;;;;;;;;;10371392;28;20068;-54
2022/08/02 03:31:40;;;;;;;6.90;1.80;;;;;;;;;;10368540;28;20084;-51
2022/08/02 03:36:41;;;;;;;11.90;1.75;;;;;;;;;;10366663;28;20116;-54
2022/08/02 03:41:43;;;;;;;6.55;1.13;;;;;;;;;;10381785;28;20080;-48
2022/08/02 03:46:44;;;;;;;9.07;1.88;;;;;;;;;;10381529;28;20497;-51
2022/08/02 03:51:45;;;;;;;14.57;1.70;;;;;;;;;;10375064;28;20117;-49
2022/08/02 03:56:45;;;;;;;6.32;1.83;;;;;;;;;;10368618;28;20107;-57
2022/08/02 04:01:49;;;;;;;7.75;1.67;;;;;;;;;;10352653;28;20022;-58
2022/08/02 04:06:50;;;;;;;6.75;1.40;;;;;;;;;;10374676;28;20169;-57
2022/08/02 04:11:50;;;;;;;11.93;1.55;;;;;;;;;;10375966;28;20506;-52
2022/08/02 04:17:04;;;;;;;6.60;1.58;;;;;;;;;;10372962;28;20481;-54
2022/08/02 04:22:19;;;;;;;6.82;1.30;;;;;;;;;;10366278;28;20362;-58
2022/08/02 04:27:22;;;;;;;9.00;1.38;;;;;;;;;;10359704;28;20394;-52
2022/08/02 04:32:23;;;;;;;8.93;1.33;;;;;;;;;;10366859;28;20188;-51
2022/08/02 04:37:25;;;;;;;5.20;1.35;;;;;;;;;;10347963;28;20384;-47
2022/08/02 04:42:26;;;;;;;4.03;1.08;;;;;;;;;;10373431;28;20045;-46
2022/08/02 04:47:27;;;;;;;3.83;0.93;;;;;;;;;;10365026;28;20478;-56
2022/08/02 04:52:27;;;;;;;5.28;1.25;;;;;;;;;;10352206;28;20030;-58
2022/08/02 05:02:48;;;;;;;4.80;1.27;;;;;;;;;;10373533;28;20113;-49
2022/08/02 05:07:48;;;;;;;4.18;1.30;;;;;;;;;;10381307;28;20125;-47
2022/08/02 05:12:49;;;;;;;9.88;1.23;;;;;;;;;;10372758;28;20076;-47
2022/08/02 05:17:50;;;;;;;3.20;1.02;;;;;;;;;;10378810;28;20116;-48
2022/08/02 05:22:50;;;;;;;5.18;1.10;;;;;;;;;;10375714;28;20117;-59
2022/08/02 05:27:51;;;;;;;5.50;1.00;;;;;;;;;;10354256;28;20029;-51
2022/08/02 05:32:51;;;;;;;2.80;1.08;;;;;;;;;;10365428;28;20042;-51
2022/08/02 05:37:52;;;;;;;8.13;1.75;;;;;;;;;;10371406;28;20026;-51
2022/08/02 05:42:54;;;;;;;8.10;1.50;;;;;;;;;;10369024;28;20528;-51
2022/08/02 05:47:54;;;;;;;9.65;1.70;;;;;;;;;;10371031;28;20065;-51
2022/08/02 05:53:25;;;;;;;10.30;2.42;;;;;;;;;;10345102;28;20436;-50
2022/08/02 05:58:39;;;;;;;9.73;1.80;;;;;;;;;;10352439;28;20029;-48
2022/08/02 06:03:50;;;;;;;9.40;1.80;;;;;;;;;;10349186;28;20049;-57
2022/08/02 06:09:13;;;;;;;8.30;1.88;;;;;;;;;;10347681;28;20026;-57
2022/08/02 06:14:15;;;;;;;5.93;1.60;;;;;;;;;;10343429;28;20057;-56
2022/08/02 06:19:18;;;;;;;3.47;1.67;;;;;;;;;;10369296;28;20026;-55
2022/08/02 06:24:19;;;;;;;4.85;1.65;;;;;;;;;;10359606;28;20056;-58
2022/08/02 06:29:21;;;;;;;8.57;2.13;;;;;;;;;;10383898;28;20033;-58
2022/08/02 06:34:21;;;;;;;5.85;1.35;;;;;;;;;;10369130;28;20022;-56
2022/08/02 06:39:42;;;;;;;4.20;1.50;;;;;;;;;;10358691;28;20031;-57
2022/08/02 06:44:43;;;;;;;3.25;1.63;;;;;;;;;;10368406;28;20519;-57
2022/08/02 06:49:44;;;;;;;5.38;1.77;;;;;;;;;;10346786;28;20084;-55
2022/08/02 06:54:44;;;;;;;3.40;1.40;;;;;;;;;;10354062;28;20021;-56
2022/08/02 06:59:45;;;;;;;3.95;1.55;;;;;;;;;;10367980;28;20026;-50
2022/08/02 07:04:46;;;;;;;8.05;1.60;;;;;;;;;;10354093;28;20034;-54
2022/08/02 07:09:47;;;;;;;3.90;1.23;;;;;;;;;;10367656;28;20044;-53
2022/08/02 07:14:47;;;;;;;7.93;1.60;;;;;;;;;;10349972;28;20025;-54
2022/08/02 07:19:48;;;;;;;4.78;1.48;;;;;;;;;;10367002;28;20065;-56
2022/08/02 07:24:49;;;;;;;4.03;1.33;;;;;;;;;;10367354;28;20088;-49
2022/08/02 07:29:51;;;;;;;4.00;1.50;;;;;;;;;;10362512;28;20409;-50
2022/08/02 07:34:53;;;;;;;5.88;1.40;;;;;;;;;;10353992;28;20032;-47
2022/08/02 07:39:54;;;;;;;2.60;1.35;;;;;;;;;;10367029;28;20335;-52
2022/08/02 07:44:54;;;;;;;3.05;1.25;;;;;;;;;;10366658;28;20038;-50
2022/08/02 07:49:55;;;;;;;5.05;1.60;;;;;;;;;;10366257;28;20030;-51
2022/08/02 07:54:56;;;;;;;2.15;1.42;;;;;;;;;;10352704;28;20030;-47
2022/08/02 07:59:56;;;;;;;2.58;1.27;;;;;;;;;;10352732;28;20084;-48
2022/08/02 08:04:57;;;;;;;2.05;1.10;;;;;;;;;;10352320;28;20068;-48
2022/08/02 08:09:59;;;;;;;2.55;1.42;;;;;;;;;;10366777;28;20030;-51
2022/08/02 08:15:00;;;;;;;2.88;1.25;;;;;;;;;;10365795;28;20408;-51
2022/08/02 08:20:03;;;;;;;3.20;1.20;;;;;;;;;;10365751;28;20033;-53
2022/08/02 08:25:04;;;;;;;1.38;1.00;;;;;;;;;;10365578;28;20063;-53
2022/08/02 08:30:05;;;;;;;2.33;1.15;;;;;;;;;;10367400;28;20034;-56
2022/08/02 08:35:07;;;;;;;3.58;1.33;;;;;;;;;;10359674;28;20045;-50
2022/08/02 08:40:09;;;;;;;2.30;1.33;;;;;;;;;;10373873;28;20112;-48
2022/08/02 08:45:10;;;;;;;4.82;1.13;;;;;;;;;;10373042;28;20034;-52
2022/08/02 08:50:23;;;;;;;1.58;1.02;;;;;;;;;;10373486;28;20021;-55
2022/08/02 08:55:26;;;;;;;4.43;1.58;;;;;;;;;;10370324;28;20049;-48
2022/08/02 09:00:28;;;;;;;2.22;1.10;;;;;;;;;;10372442;28;20030;-55
2022/08/02 09:05:29;;;;;;;2.50;1.33;;;;;;;;;;10371513;28;20054;-48
2022/08/02 09:10:47;;;;;;;1.55;1.00;;;;;;;;;;10354954;28;20056;-58
2022/08/02 09:16:00;;;;;;;1.75;1.00;;;;;;;;;;10371855;28;20500;-51
2022/08/02 09:21:04;;;;;;;2.95;1.20;;;;;;;;;;10372268;28;20037;-50
2022/08/02 09:26:10;;;;;;;2.10;1.27;;;;;;;;;;10357916;28;20152;-57
2022/08/02 09:31:14;;;;;;;2.40;1.00;;;;;;;;;;10367272;28;20104;-53
2022/08/02 09:36:16;;;;;;;2.08;1.05;;;;;;;;;;10371314;28;20465;-57
2022/08/02 09:41:23;;;;;;;1.05;0.85;;;;;;;;;;10359740;28;20482;-53
2022/08/02 09:46:28;;;;;;;1.43;1.00;;;;;;;;;;10368686;28;20037;-53
2022/08/02 09:51:35;;;;;;;1.65;1.10;;;;;;;;;;10364372;28;20605;-51
2022/08/02 09:56:53;;;;;;;1.65;0.90;;;;;;;;;;10364768;28;20486;-56
2022/08/02 10:01:56;;;;;;;1.77;1.10;;;;;;;;;;10370978;28;20125;-54
2022/08/02 10:06:58;;;;;;;3.00;1.27;;;;;;;;;;10369961;28;20041;-52
2022/08/02 10:12:00;;;;;;;4.40;1.30;;;;;;;;;;10369910;28;20026;-48
2022/08/02 10:17:02;;;;;;;3.78;1.40;;;;;;;;;;10370251;28;20109;-51
2022/08/02 10:22:12;;;;;;;3.35;1.33;;;;;;;;;;10352532;28;20496;-53
2022/08/02 10:27:18;;;;;;;3.47;1.10;;;;;;;;;;10364726;28;20058;-47
2022/08/02 10:32:28;;;;;;;1.50;1.20;;;;;;;;;;10355875;28;20381;-52
2022/08/02 10:37:36;;;;;;;3.20;1.42;;;;;;;;;;10338271;28;20428;-51
2022/08/02 10:42:49;;;;;;;1.77;1.00;;;;;;;;;;10351972;28;20412;-57
2022/08/02 10:48:13;;;;;;;1.70;1.10;;;;;;;;;;10368944;28;20034;-56
2022/08/02 10:53:33;;;;;;;2.00;1.20;;;;;;;;;;10354056;28;20026;-57
2022/08/02 10:58:34;;;;;;;1.30;1.00;;;;;;;;;;10367876;28;20413;-56
2022/08/02 11:03:39;;;;;;;3.38;1.20;;;;;;;;;;10368033;28;20057;-53
2022/08/02 11:08:40;;;;;;;2.72;1.25;;;;;;;;;;10368480;28;20302;-50
2022/08/02 11:14:01;;;;;;;1.10;1.00;;;;;;;;;;10367983;28;20050;-51
2022/08/02 11:19:03;;;;;;;1.80;1.00;;;;;;;;;;10354208;28;20033;-51
2022/08/02 11:24:28;;;;;;;2.38;1.13;;;;;;;;;;10368650;28;20072;-48
2022/08/02 11:29:38;;;;;;;2.95;1.08;;;;;;;;;;10345675;28;20477;-49
2022/08/02 11:34:41;;;;;;;4.05;1.08;;;;;;;;;;10352906;28;20393;-51
2022/08/02 11:39:50;;;;;;;2.40;1.35;;;;;;;;;;10371641;28;20034;-50
2022/08/02 11:44:51;;;;;;;1.75;1.15;;;;;;;;;;10367235;28;20033;-48
2022/08/02 11:49:52;;;;;;;1.83;1.00;;;;;;;;;;10365134;28;20362;-54
2022/08/02 11:54:52;;;;;;;2.17;1.52;;;;;;;;;;10352361;28;20025;-48
2022/08/02 11:59:56;;;;;;;1.50;1.20;;;;;;;;;;10375728;28;20030;-48
2022/08/02 12:05:00;;;;;;;1.98;1.10;;;;;;;;;;10371149;28;20049;-49
2022/08/02 12:10:08;;;;;;;1.15;1.00;;;;;;;;;;10380303;28;20030;-52
2022/08/02 12:15:09;;;;;;;1.13;0.95;;;;;;;;;;10376748;28;20096;-47
2022/08/02 12:20:12;;;;;;;3.90;1.20;;;;;;;;;;10375584;28;20032;-51
2022/08/02 12:25:21;;;;;;;2.33;1.27;;;;;;;;;;10373807;28;20034;-49
2022/08/02 12:30:22;;;;;;;1.10;1.00;;;;;;;;;;10376200;28;20033;-50
2022/08/02 12:35:29;;;;;;;2.10;1.20;;;;;;;;;;10378968;28;20024;-48
2022/08/02 12:40:32;;;;;;;;;;;;;;;;;;10375227;28;20584;-54
2022/08/02 12:46:02;;;;;;;1.50;1.20;;;;;;;;;;10381752;28;19975;-47
2022/08/02 12:51:32;;;;;;;1.08;1.00;;;;;;;;;;10366730;28;20112;-59
2022/08/02 12:56:37;;;;;;;2.45;1.00;;;;;;;;;;10372906;28;20030;-58
2022/08/02 13:01:38;;;;;;;1.40;1.20;;;;;;;;;;10371875;28;20124;-48
2022/08/02 13:06:39;;;;;;;3.17;1.15;;;;;;;;;;10370979;28;20056;-51
2022/08/02 13:11:41;;;;;;;2.72;1.23;;;;;;;;;;10372122;28;20037;-47
2022/08/02 13:16:44;;;;;;;4.50;1.20;;;;;;;;;;10363806;28;20264;-57
2022/08/02 13:21:45;;;;;;;1.48;1.10;;;;;;;;;;10372027;28;20022;-48
2022/08/02 13:26:46;;;;;;;4.63;1.35;;;;;;;;;;10358691;28;20381;-49
2022/08/02 13:31:47;;;;;;;1.88;1.17;;;;;;;;;;10370959;28;20025;-50
2022/08/02 13:36:48;;;;;;;2.20;0.98;;;;;;;;;;10370645;28;20030;-56
2022/08/02 13:41:49;;;;;;;2.22;1.17;;;;;;;;;;10370325;28;20029;-53
2022/08/02 13:46:49;;;;;;;2.38;1.20;;;;;;;;;;10356976;28;20031;-50
2022/08/02 13:51:50;;;;;;;2.03;1.20;;;;;;;;;;10385667;28;20103;-48
2022/08/02 13:56:51;;;;;;;2.50;1.30;;;;;;;;;;10348648;28;20026;-50
2022/08/02 14:01:53;;;;;;;2.75;1.40;;;;;;;;;;10369297;28;20026;-49
2022/08/02 14:06:53;;;;;;;3.08;1.20;;;;;;;;;;10373927;28;20061;-47
2022/08/02 14:11:54;;;;;;;3.45;1.52;;;;;;;;;;10369804;28;20036;-56
2022/08/02 14:16:55;;;;;;;4.72;1.58;;;;;;;;;;10382181;28;20034;-49
2022/08/02 14:21:56;;;;;;;1.77;1.23;;;;;;;;;;10373783;28;20252;-50
2022/08/02 14:26:57;;;;;;;2.38;1.17;;;;;;;;;;10367642;28;20029;-48
2022/08/02 14:31:57;;;;;;;3.63;1.15;;;;;;;;;;10367419;28;20501;-47
2022/08/02 14:36:58;;;;;;;2.95;1.10;;;;;;;;;;10369181;28;20124;-48
2022/08/02 14:41:59;;;;;;;1.60;1.05;;;;;;;;;;10369295;28;20022;-47
2022/08/02 14:46:59;;;;;;;1.58;1.00;;;;;;;;;;10368311;28;20041;-48
2022/08/02 14:52:00;;;;;;;4.68;1.30;;;;;;;;;;10357515;28;20065;-47
2022/08/02 14:57:02;;;;;;;5.35;1.08;;;;;;;;;;10352063;28;20101;-47
2022/08/02 15:02:03;;;;;;;3.40;0.98;;;;;;;;;;10368601;28;20033;-49
2022/08/02 15:07:04;;;;;;;1.52;0.82;;;;;;;;;;10366251;28;20406;-47
2022/08/02 15:12:05;;;;;;;1.73;1.30;;;;;;;;;;10367342;28;20370;-47
2022/08/02 15:17:06;;;;;;;2.22;1.27;;;;;;;;;;10367612;28;20254;-47
2022/08/02 15:22:07;;;;;;;2.13;1.30;;;;;;;;;;10367754;28;20018;-47
2022/08/02 15:27:11;;;;;;;1.63;1.00;;;;;;;;;;10345381;28;20442;-49
2022/08/02 15:32:15;;;;;;;4.30;1.08;;;;;;;;;;10367672;28;20025;-49
2022/08/02 15:37:16;;;;;;;2.58;0.80;;;;;;;;;;10381223;28;20497;-48
2022/08/02 15:42:17;;;;;;;0.95;0.80;;;;;;;;;;10349296;28;20058;-49
2022/08/02 15:47:18;;;;;;;1.05;0.90;;;;;;;;;;10366942;28;20033;-47
2022/08/02 15:52:18;;;;;;;0.88;0.88;;;;;;;;;;10353933;28;20053;-47
2022/08/02 15:57:19;;;;;;;2.15;0.95;;;;;;;;;;10365788;28;20060;-47
2022/08/02 16:02:20;;;;;;;1.65;0.90;;;;;;;;;;10366762;28;20033;-47
2022/08/02 16:07:21;;;;;;;1.08;0.80;;;;;;;;;;10366498;28;20073;-49
2022/08/02 16:12:21;;;;;;;0.90;0.77;;;;;;;;;;10366162;28;20025;-47
2022/08/02 16:17:22;;;;;;;1.75;0.82;;;;;;;;;;10367044;28;20057;-47
2022/08/02 16:22:23;;;;;;;1.45;1.00;;;;;;;;;;10362657;28;20235;-47
2022/08/02 16:27:23;;;;;;;1.77;0.98;;;;;;;;;;10356008;28;20030;-50
2022/08/02 16:32:24;;;;;;;1.50;0.95;;;;;;;;;;10352421;28;20018;-47
2022/08/02 16:37:26;;;;;;;0.90;0.80;;;;;;;;;;10363172;28;20095;-48
2022/08/02 16:42:26;;;;;;;4.00;0.80;;;;;;;;;;10363957;28;20492;-45
2022/08/02 16:47:27;;;;;;;0.88;0.80;;;;;;;;;;10365235;28;20029;-46
2022/08/02 16:52:27;;;;;;;1.13;0.77;;;;;;;;;;10367195;28;20049;-46
2022/08/02 16:57:28;;;;;;;2.53;1.00;;;;;;;;;;10378931;28;20260;-46
2022/08/02 17:02:29;;;;;;;1.02;0.70;;;;;;;;;;10372889;28;20022;-46
2022/08/02 17:07:29;;;;;;;2.40;0.90;;;;;;;;;;10367295;28;20478;-46
2022/08/02 17:12:30;;;;;;;1.10;0.90;;;;;;;;;;10372645;28;20466;-48
2022/08/02 17:17:31;;;;;;;4.82;0.90;;;;;;;;;;10356148;28;20103;-46
2022/08/02 17:22:31;;;;;;;8.60;1.10;;;;;;;;;;10371955;28;20436;-47
2022/08/02 17:27:32;;;;;;;4.38;1.08;;;;;;;;;;10367441;28;20034;-47
2022/08/02 17:32:33;;;;;;;17.13;1.40;;;;;;;;;;10371007;28;20088;-47
2022/08/02 17:37:34;;;;;;;6.88;1.17;;;;;;;;;;10371488;28;20026;-49
2022/08/02 17:42:35;;;;;;;3.67;1.30;;;;;;;;;;10370080;28;20109;-49
2022/08/02 17:47:37;;;;;;;6.93;1.45;;;;;;;;;;10367975;28;20041;-47
2022/08/02 17:52:37;;;;;;;1.98;1.10;;;;;;;;;;10374349;28;20037;-47
2022/08/02 17:57:38;;;;;;;3.13;1.17;;;;;;;;;;10366485;28;20038;-47
2022/08/02 18:02:39;;;;;;;2.75;1.23;;;;;;;;;;10351159;28;20049;-47
2022/08/02 18:07:39;;;;;;;3.60;1.05;;;;;;;;;;10368890;28;20044;-48
2022/08/02 18:12:40;;;;;;;2.03;1.02;;;;;;;;;;10370543;28;20088;-47
2022/08/02 18:17:41;;;;;;;3.83;1.40;;;;;;;;;;10369968;28;20385;-48
2022/08/02 18:22:41;;;;;;;1.58;0.90;;;;;;;;;;10369982;28;20045;-48
2022/08/02 18:27:42;;;;;;;3.88;1.02;;;;;;;;;;10364310;28;20038;-49
2022/08/02 18:32:42;;;;;;;3.88;1.30;;;;;;;;;;10370401;28;20493;-47
2022/08/02 18:37:43;;;;;;;3.47;1.10;;;;;;;;;;10374996;28;20033;-47
2022/08/02 18:42:43;;;;;;;3.45;1.40;;;;;;;;;;10369206;28;20512;-47
2022/08/02 18:47:44;;;;;;;2.65;1.00;;;;;;;;;;10368973;28;20478;-47
2022/08/02 18:52:46;;;;;;;4.65;1.25;;;;;;;;;;10346352;28;20539;-48
2022/08/02 18:57:47;;;;;;;1.88;0.90;;;;;;;;;;10366734;28;20073;-48
2022/08/02 19:02:47;;;;;;;2.40;0.90;;;;;;;;;;10371735;28;20108;-47
2022/08/02 19:07:48;;;;;;;2.65;1.13;;;;;;;;;;10342738;28;20052;-49
2022/08/02 19:12:48;;;;;;;5.75;1.30;;;;;;;;;;10349501;28;20030;-48
2022/08/02 19:17:49;;;;;;;4.38;1.35;;;;;;;;;;10373813;28;20029;-46
2022/08/02 19:22:50;;;;;;;2.85;1.42;;;;;;;;;;10365040;28;20268;-47
2022/08/02 19:27:52;;;;;;;3.17;1.40;;;;;;;;;;10369096;28;20041;-47
2022/08/02 19:32:54;;;;;;;7.03;1.48;;;;;;;;;;10369278;28;20054;-47
2022/08/02 19:37:56;;;;;;;6.72;1.77;;;;;;;;;;10326537;28;20117;-46
2022/08/02 19:42:57;;;;;;;7.43;1.75;;;;;;;;;;10333437;28;20034;-47
2022/08/02 19:47:57;;;;;;;4.38;1.33;;;;;;;;;;10347802;28;20026;-47
2022/08/02 19:52:58;;;;;;;3.92;1.55;;;;;;;;;;10332044;28;20018;-47
2022/08/02 19:57:58;;;;;;;6.28;1.70;;;;;;;;;;10366824;28;20029;-47
2022/08/02 20:02:59;;;;;;;7.65;1.60;;;;;;;;;;10366878;28;20037;-46
2022/08/02 20:08:00;;;;;;;5.05;1.73;;;;;;;;;;10366816;28;20975;-49
2022/08/02 20:13:00;;;;;;;6.40;1.85;;;;;;;;;;10366956;28;20630;-46
2022/08/02 20:18:01;;;;;;;5.10;1.20;;;;;;;;;;10366876;28;20025;-48
2022/08/02 20:23:13;;;;;;;4.93;1.30;;;;;;;;;;10368250;28;20037;-46
2022/08/02 20:28:14;;;;;;;5.50;1.27;;;;;;;;;;10369558;28;20037;-46
2022/08/02 20:33:14;;;;;;;4.32;1.30;;;;;;;;;;10360897;28;20461;-47
2022/08/02 20:38:15;;;;;;;5.60;1.58;;;;;;;;;;10374315;28;20026;-46
2022/08/02 20:43:16;;;;;;;2.20;1.35;;;;;;;;;;10346779;28;20493;-48
2022/08/02 20:48:16;;;;;;;3.72;1.17;;;;;;;;;;10372872;28;20041;-47
2022/08/02 20:53:19;;;;;;;3.22;1.35;;;;;;;;;;10373075;28;20603;-47
2022/08/02 20:58:19;;;;;;;2.90;1.25;;;;;;;;;;10371438;28;20030;-47
2022/08/02 21:03:20;;;;;;;4.63;1.60;;;;;;;;;;10363887;28;20385;-49
2022/08/02 21:08:20;;;;;;;1.95;1.25;;;;;;;;;;10362981;28;20030;-48
2022/08/02 21:13:22;;;;;;;3.42;1.30;;;;;;;;;;10371836;28;20482;-47
2022/08/02 21:18:23;;;;;;;2.78;1.30;;;;;;;;;;10371323;28;20041;-48
2022/08/02 21:23:23;;;;;;;3.97;1.25;;;;;;;;;;10359652;28;20026;-47
2022/08/02 21:28:25;;;;;;;4.70;1.50;;;;;;;;;;10367070;28;20591;-48
2022/08/02 21:33:26;;;;;;;4.32;1.52;;;;;;;;;;10377558;28;20121;-51
2022/08/02 21:38:27;;;;;;;2.80;1.67;;;;;;;;;;10371477;28;20375;-50
2022/08/02 21:43:28;;;;;;;5.15;1.55;;;;;;;;;;10377925;28;20029;-55
2022/08/02 21:48:28;;;;;;;4.30;1.58;;;;;;;;;;10371082;28;20497;-54
2022/08/02 21:53:29;;;;;;;2.60;1.40;;;;;;;;;;10370123;28;20440;-56
2022/08/02 21:58:29;;;;;;;3.10;1.20;;;;;;;;;;10374726;28;20422;-56
2022/08/02 22:03:31;;;;;;;4.22;1.10;;;;;;;;;;10368300;28;20056;-55
2022/08/02 22:08:31;;;;;;;2.42;1.38;;;;;;;;;;10383427;28;20034;-49
2022/08/02 22:13:34;;;;;;;0.90;0.90;;;;;;;;;;10369926;28;20026;-53
2022/08/02 22:18:34;;;;;;;6.85;1.20;;;;;;;;;;10359313;28;20454;-52
2022/08/02 22:23:35;;;;;;;7.35;1.20;;;;;;;;;;10368347;28;20043;-51
2022/08/02 22:28:36;;;;;;;4.70;1.23;;;;;;;;;;10363936;28;20068;-54
2022/08/02 22:38:56;;;;;;;2.85;1.10;;;;;;;;;;10371277;28;20456;-55
2022/08/02 22:43:56;;;;;;;3.05;1.30;;;;;;;;;;10373424;28;20022;-55
2022/08/02 22:48:59;;;;;;;1.30;0.98;;;;;;;;;;10374204;28;20038;-56
2022/08/02 22:54:00;;;;;;;2.75;1.50;;;;;;;;;;10357027;28;20033;-55
2022/08/02 22:59:00;;;;;;;2.50;1.27;;;;;;;;;;10379155;28;20374;-55
2022/08/02 23:04:01;;;;;;;2.90;0.98;;;;;;;;;;10368924;28;20068;-56
2022/08/02 23:09:01;;;;;;;5.28;1.23;;;;;;;;;;10368578;28;20037;-56
2022/08/02 23:14:02;;;;;;;1.55;1.10;;;;;;;;;;10366978;28;20030;-55
2022/08/02 23:24:23;;;;;;;0.90;0.82;;;;;;;;;;10367407;28;20030;-55
2022/08/02 23:29:23;;;;;;;4.63;1.17;;;;;;;;;;10361874;28;20485;-56
2022/08/02 23:34:24;;;;;;;3.25;1.20;;;;;;;;;;10378193;28;20036;-54
2022/08/02 23:39:25;;;;;;;2.03;1.20;;;;;;;;;;10366269;28;20516;-56
2022/08/02 23:44:26;;;;;;;5.20;1.13;;;;;;;;;;10367020;28;20018;-56
2022/08/02 23:49:27;;;;;;;2.28;1.45;;;;;;;;;;10371314;28;20041;-56
2022/08/02 23:54:28;;;;;;;3.08;1.20;;;;;;;;;;10367469;28;20026;-54
2022/08/02 23:59:28;;;;;;;4.97;1.15;;;;;;;;;;10381530;28;20037;-57
